Airport View

Enter AWOS ICAO identifier for current METAR.

ex. KFNL

KRFD 112054Z VRB05KT 10SM CLR M04/M15 A3049 RMK AO2 SLP337 T10441150 53016

11 Dec 2019 21:53

Phone: 815-484-6229

Other Area AWOS: KRPJ - KFEP - KDKB - KJVL

TAF KRFD 112128Z 1121/1218 VRB04KT P6SM FEW250 FM120200 10004KT P6SM FEW100 BKN250 FM120900 14010KT P6SM FEW100 OVC250 FM121600 19017G28KT P6SM BKN100 BKN250 WS020/21045KT